Time;durP1;ratioP1;P1;durP2;ratioP2;P2;SDS_P1;SDS_P2;PMS_P1;PMS_P2;Temp;Humidity;BMP_temperature;BMP_pressure;BME280_temperature;BME280_humidity;BME280_pressure;Samples;Min_cycle;Max_cycle;Signal;HPM_P1;HPM_P2
2023/04/06 00:00:31;;;;;;;11.25;7.93;;;;;;;3.78;72.51;101835.03;5090411;28;20071;-35
2023/04/06 00:02:56;;;;;;;10.13;7.60;;;;;;;3.77;72.57;101835.22;5090018;28;20099;-35
2023/04/06 00:05:22;;;;;;;9.77;7.50;;;;;;;3.66;71.26;101824.78;5089710;28;20027;-35
2023/04/06 00:07:48;;;;;;;9.35;7.95;;;;;;;3.81;72.57;101829.38;5089649;28;20059;-35
2023/04/06 00:10:13;;;;;;;10.10;7.43;;;;;;;3.74;73.14;101833.69;5089763;28;20053;-35
2023/04/06 00:12:39;;;;;;;11.18;8.30;;;;;;;3.76;72.38;101825.50;5082041;28;20580;-35
2023/04/06 00:15:05;;;;;;;10.40;8.00;;;;;;;3.73;72.74;101832.00;5076062;28;20048;-36
2023/04/06 00:17:31;;;;;;;11.00;7.95;;;;;;;3.71;73.28;101828.66;5076299;28;20020;-35
2023/04/06 00:19:56;;;;;;;8.77;7.33;;;;;;;3.65;74.19;101807.06;5076256;28;20020;-35
2023/04/06 00:22:21;;;;;;;10.43;7.43;;;;;;;3.70;73.77;101821.63;5076312;28;20385;-35
2023/04/06 00:24:47;;;;;;;10.53;8.07;;;;;;;3.68;73.61;101812.09;5077036;28;20062;-35
2023/04/06 00:27:12;;;;;;;10.43;7.97;;;;;;;3.72;72.98;101819.63;5076184;28;20031;-35
2023/04/06 00:29:38;;;;;;;10.63;8.20;;;;;;;3.66;72.81;101811.41;5076660;28;20012;-35
2023/04/06 00:32:04;;;;;;;10.90;8.45;;;;;;;3.69;72.88;101811.94;5075957;28;20461;-35
2023/04/06 00:34:29;;;;;;;8.88;7.45;;;;;;;3.66;74.14;101806.06;5076029;28;20024;-35
2023/04/06 00:36:55;;;;;;;10.20;7.53;;;;;;;3.71;73.55;101807.28;5076058;28;20033;-35
2023/04/06 00:39:20;;;;;;;10.00;8.23;;;;;;;3.59;73.36;101784.47;5075988;28;20029;-35
2023/04/06 00:41:50;;;;;;;11.50;7.93;;;;;;;3.74;73.42;101796.22;5076186;28;20021;-35
2023/04/06 00:44:16;;;;;;;10.60;8.15;;;;;;;3.66;73.52;101792.69;5075531;28;20033;-35
2023/04/06 00:46:41;;;;;;;9.40;8.13;;;;;;;3.75;73.02;101795.22;5075816;28;20017;-35
2023/04/06 00:49:06;;;;;;;11.73;7.07;;;;;;;3.70;72.92;101788.69;5075518;28;20032;-35
2023/04/06 00:51:32;;;;;;;9.70;7.63;;;;;;;3.65;71.59;101791.84;5075458;28;20464;-35
2023/04/06 00:53:57;;;;;;;9.83;7.37;;;;;;;3.60;73.61;101773.59;5075602;28;20029;-35
2023/04/06 00:56:23;;;;;;;11.00;7.60;;;;;;;3.68;72.87;101780.00;5075633;28;20077;-35
2023/04/06 00:58:49;;;;;;;10.93;8.63;;;;;;;3.71;72.99;101771.63;5075780;28;20040;-35
2023/04/06 01:01:15;;;;;;;9.65;7.65;;;;;;;3.79;72.81;101785.88;5075253;28;20052;-35
2023/04/06 01:03:42;;;;;;;10.20;7.80;;;;;;;3.65;72.06;101778.47;5075248;28;20020;-35
2023/04/06 01:06:07;;;;;;;10.25;7.95;;;;;;;3.70;72.82;101780.66;5075963;28;20346;-35
2023/04/06 01:08:33;;;;;;;10.55;7.82;;;;;;;3.70;72.63;101770.78;5075860;28;20027;-36
2023/04/06 01:11:00;;;;;;;10.00;7.43;;;;;;;3.59;71.15;101771.09;5076162;28;20082;-34
2023/04/06 01:13:26;;;;;;;9.05;7.70;;;;;;;3.55;71.42;101769.75;5075219;28;20055;-34
2023/04/06 01:15:51;;;;;;;19.05;7.88;;;;;;;3.58;72.63;101769.44;5074893;28;20480;-35
2023/04/06 01:18:17;;;;;;;8.43;6.83;;;;;;;3.59;71.20;101755.88;5074927;28;20032;-35
2023/04/06 01:20:43;;;;;;;9.18;7.22;;;;;;;3.63;71.21;101766.28;5073909;28;20267;-34
2023/04/06 01:23:08;;;;;;;9.47;6.90;;;;;;;3.59;74.63;101760.41;5074738;28;20051;-34
2023/04/06 01:25:33;;;;;;;8.83;6.63;;;;;;;3.62;72.26;101762.78;5074735;28;20111;-35
2023/04/06 01:27:59;;;;;;;8.60;6.90;;;;;;;3.54;72.42;101757.38;5075495;28;20345;-35
2023/04/06 01:30:24;;;;;;;9.10;7.57;;;;;;;3.61;72.51;101753.03;5074923;28;20028;-36
2023/04/06 01:32:50;;;;;;;8.87;6.87;;;;;;;3.61;72.83;101748.56;5074840;28;20400;-35
2023/04/06 01:35:16;;;;;;;8.98;7.45;;;;;;;3.60;72.12;101746.03;5075082;28;20289;-35
2023/04/06 01:37:41;;;;;;;8.88;7.38;;;;;;;3.60;72.46;101748.69;5075534;28;20020;-35
2023/04/06 01:40:07;;;;;;;8.83;7.27;;;;;;;3.56;71.54;101737.50;5075460;28;20025;-35
2023/04/06 01:42:32;;;;;;;9.43;7.18;;;;;;;3.54;73.18;101730.63;5074646;28;20459;-35
2023/04/06 01:44:58;;;;;;;8.50;7.07;;;;;;;3.63;72.87;101731.50;5074928;28;20025;-35
2023/04/06 01:47:23;;;;;;;9.23;6.53;;;;;;;3.71;74.15;101743.06;5073259;28;20457;-35
2023/04/06 01:49:49;;;;;;;10.43;7.57;;;;;;;3.61;72.86;101743.22;5074829;28;20020;-35
2023/04/06 01:52:15;;;;;;;9.87;7.50;;;;;;;3.63;72.69;101740.38;5074551;28;20103;-35
2023/04/06 01:54:40;;;;;;;11.45;7.45;;;;;;;3.62;73.07;101733.34;5075002;28;20035;-36
2023/04/06 01:57:06;;;;;;;12.47;7.87;;;;;;;3.59;72.99;101736.34;5074468;28;20020;-35
2023/04/06 01:59:31;;;;;;;10.13;7.57;;;;;;;3.62;73.42;101733.34;5074944;28;20024;-35
2023/04/06 02:01:56;;;;;;;9.80;7.23;;;;;;;3.69;74.78;101729.00;5074811;28;20449;-35
2023/04/06 02:04:22;;;;;;;10.40;7.67;;;;;;;3.57;74.30;101712.44;5074536;28;20020;-35
2023/04/06 02:06:47;;;;;;;13.27;7.60;;;;;;;3.63;76.26;101707.44;5074217;28;20058;-35
2023/04/06 02:09:12;;;;;;;9.57;6.97;;;;;;;3.69;74.36;101704.91;5074527;28;20442;-35
2023/04/06 02:11:38;;;;;;;10.70;8.17;;;;;;;3.66;73.64;101699.94;5074107;28;20066;-35
2023/04/06 02:14:03;;;;;;;10.83;7.97;;;;;;;3.72;75.18;101703.78;5074677;28;20028;-35
2023/04/06 02:16:29;;;;;;;11.27;7.73;;;;;;;3.79;73.35;101708.28;5074106;28;20465;-35
2023/04/06 02:18:54;;;;;;;12.40;8.97;;;;;;;3.79;74.17;101707.44;5073977;28;20316;-35
2023/04/06 02:21:20;;;;;;;9.67;7.70;;;;;;;3.79;73.37;101699.41;5074043;28;20055;-35
2023/04/06 02:23:49;;;;;;;11.57;7.63;;;;;;;3.74;72.77;101699.91;5073628;28;20024;-35
2023/04/06 02:26:14;;;;;;;12.05;8.88;;;;;;;3.80;73.50;101699.25;5073885;28;20031;-35
2023/04/06 02:28:40;;;;;;;10.52;8.35;;;;;;;3.75;73.78;101690.03;5074134;28;20017;-35
2023/04/06 02:31:05;;;;;;;11.98;8.35;;;;;;;3.86;73.39;101693.25;5074434;28;20020;-35
2023/04/06 02:33:31;;;;;;;11.37;9.03;;;;;;;3.89;73.39;101692.06;5089158;28;20023;-36
2023/04/06 02:35:56;;;;;;;11.20;7.77;;;;;;;3.91;73.96;101692.75;5073568;28;20158;-36
2023/04/06 02:38:21;;;;;;;11.37;8.00;;;;;;;3.96;73.10;101682.38;5074028;28;20027;-35
2023/04/06 02:40:47;;;;;;;9.57;7.77;;;;;;;3.98;72.88;101679.53;5073780;28;20479;-35
2023/04/06 02:43:12;;;;;;;12.60;8.63;;;;;;;3.95;74.13;101690.56;5073758;28;20334;-35
2023/04/06 02:45:37;;;;;;;11.23;8.90;;;;;;;3.98;74.70;101684.88;5074540;28;20433;-36
2023/04/06 02:48:03;;;;;;;9.67;7.50;;;;;;;3.93;75.97;101658.63;5074212;28;20027;-35
2023/04/06 02:50:29;;;;;;;11.18;8.20;;;;;;;3.92;75.14;101664.16;5074013;28;20052;-35
2023/04/06 02:52:54;;;;;;;14.52;9.07;;;;;;;3.98;74.21;101669.66;5073309;28;20023;-35
2023/04/06 02:55:20;;;;;;;11.15;9.05;;;;;;;4.01;74.78;101668.50;5073432;28;20028;-35
2023/04/06 02:57:45;;;;;;;11.13;8.63;;;;;;;4.03;75.09;101671.84;5073639;28;20104;-35
2023/04/06 03:00:11;;;;;;;12.40;9.03;;;;;;;4.02;75.04;101665.66;5073751;28;20048;-35
2023/04/06 03:02:37;;;;;;;;;;;;;;;4.12;74.31;101652.09;5074277;28;20028;-35
2023/04/06 03:05:03;;;;;;;14.50;9.30;;;;;;;3.98;75.58;101652.78;5073262;28;19912;-35
2023/04/06 03:07:28;;;;;;;13.45;9.93;;;;;;;3.97;75.17;101645.75;5073973;28;20267;-35
2023/04/06 03:09:54;;;;;;;11.57;9.17;;;;;;;3.99;75.93;101649.09;5073509;28;20024;-36
2023/04/06 03:12:20;;;;;;;11.55;8.90;;;;;;;4.06;76.07;101660.81;5072226;28;20290;-35
2023/04/06 03:14:45;;;;;;;10.27;9.13;;;;;;;4.01;76.85;101658.63;5073469;28;20020;-36
2023/04/06 03:17:10;;;;;;;11.00;9.13;;;;;;;4.04;76.78;101662.78;5073178;28;20063;-35
2023/04/06 03:19:36;;;;;;;12.27;8.50;;;;;;;4.09;79.29;101657.78;5074250;28;20070;-35
2023/04/06 03:22:01;;;;;;;13.07;9.83;;;;;;;3.97;79.48;101643.91;5072998;28;20017;-35
2023/04/06 03:24:30;;;;;;;10.23;8.97;;;;;;;4.09;79.35;101647.91;5073313;28;20266;-35
2023/04/06 03:26:56;;;;;;;10.07;8.40;;;;;;;4.05;78.04;101648.41;5073545;28;20016;-35
2023/04/06 03:29:21;;;;;;;11.80;9.63;;;;;;;3.93;77.25;101628.34;5073217;28;20024;-35
2023/04/06 03:31:47;;;;;;;13.90;9.97;;;;;;;3.91;79.11;101625.03;5073252;28;20039;-35
2023/04/06 03:34:12;;;;;;;12.73;9.93;;;;;;;3.98;77.94;101639.38;5072975;28;20282;-35
2023/04/06 03:36:37;;;;;;;13.10;9.87;;;;;;;3.96;79.23;101622.69;5073632;28;20464;-35
2023/04/06 03:39:03;;;;;;;14.33;10.33;;;;;;;3.96;77.95;101638.75;5073194;28;20115;-36
2023/04/06 03:41:28;;;;;;;12.80;10.20;;;;;;;3.85;78.70;101627.34;5073944;28;20028;-36
2023/04/06 03:43:54;;;;;;;12.37;9.57;;;;;;;3.93;79.44;101639.91;5073172;28;20050;-36
2023/04/06 03:46:19;;;;;;;11.70;10.05;;;;;;;3.92;78.46;101632.03;5073694;28;20020;-36
2023/04/06 03:48:45;;;;;;;12.20;9.97;;;;;;;3.92;78.38;101634.72;5076264;28;20423;-35
2023/04/06 03:51:10;;;;;;;14.00;9.75;;;;;;;3.89;78.13;101633.19;5077411;28;20334;-35
2023/04/06 03:53:37;;;;;;;15.60;9.63;;;;;;;3.88;79.01;101634.22;5076745;28;20028;-35
2023/04/06 03:56:02;;;;;;;13.40;10.48;;;;;;;3.93;79.35;101634.53;5077335;28;20356;-35
2023/04/06 03:58:27;;;;;;;12.68;10.48;;;;;;;3.86;78.81;101618.34;5076611;28;20017;-35
2023/04/06 04:00:53;;;;;;;13.43;10.73;;;;;;;3.93;78.41;101623.00;5076442;28;20092;-35
2023/04/06 04:03:19;;;;;;;15.37;11.53;;;;;;;3.92;79.44;101626.69;5076994;28;20051;-35
2023/04/06 04:05:44;;;;;;;16.27;11.25;;;;;;;3.90;78.53;101632.19;5077437;28;20021;-35
2023/04/06 04:08:10;;;;;;;14.18;10.05;;;;;;;3.92;79.98;101638.22;5076468;28;20044;-35
2023/04/06 04:10:38;;;;;;;15.27;11.02;;;;;;;3.86;79.52;101638.91;5076458;28;20074;-35
2023/04/06 04:13:04;;;;;;;13.40;10.95;;;;;;;3.89;79.85;101635.88;5076191;28;20387;-35
2023/04/06 04:15:29;;;;;;;12.18;9.75;;;;;;;3.91;79.75;101633.06;5076727;28;20021;-35
2023/04/06 04:17:54;;;;;;;14.30;10.50;;;;;;;3.91;80.23;101628.53;5076368;28;20048;-36
2023/04/06 04:20:20;;;;;;;11.87;10.17;;;;;;;3.90;80.40;101629.50;5076231;28;20032;-35
2023/04/06 04:22:45;;;;;;;12.80;9.83;;;;;;;3.64;79.96;101592.25;5076309;28;20108;-35
2023/04/06 04:25:11;;;;;;;12.57;10.57;;;;;;;3.86;80.25;101629.03;5076627;28;20017;-35
2023/04/06 04:27:36;;;;;;;16.17;10.67;;;;;;;3.87;79.50;101632.53;5076708;28;20078;-35
2023/04/06 04:30:01;;;;;;;14.10;11.30;;;;;;;3.83;79.76;101634.72;5076403;28;20055;-35
2023/04/06 04:32:27;;;;;;;14.35;10.75;;;;;;;3.83;80.53;101640.06;5076613;28;20322;-35
2023/04/06 04:34:53;;;;;;;14.87;11.07;;;;;;;3.59;79.70;101602.59;5076413;28;20024;-35
2023/04/06 04:37:19;;;;;;;13.57;11.10;;;;;;;3.76;81.05;101633.72;5075736;28;20066;-35
2023/04/06 04:39:45;;;;;;;13.13;11.05;;;;;;;3.78;81.21;101637.06;5076493;28;20486;-35
2023/04/06 04:42:10;;;;;;;16.65;10.90;;;;;;;3.79;81.51;101622.66;5076080;28;20021;-35
2023/04/06 04:44:36;;;;;;;13.03;10.47;;;;;;;3.80;81.46;101623.50;5076694;28;20027;-35
2023/04/06 04:47:01;;;;;;;12.00;9.63;;;;;;;3.81;81.63;101633.22;5076407;28;20262;-36
2023/04/06 04:49:26;;;;;;;14.03;11.23;;;;;;;3.78;81.07;101612.97;5076412;28;20020;-36
2023/04/06 04:51:52;;;;;;;14.27;11.63;;;;;;;3.78;80.14;101618.31;5076308;28;20440;-36
2023/04/06 04:54:18;;;;;;;13.25;11.23;;;;;;;3.74;80.68;101608.97;5076014;28;20012;-36
2023/04/06 04:56:44;;;;;;;;;;;;;;;3.87;79.78;101620.00;5076106;28;20058;-36
2023/04/06 04:59:10;;;;;;;14.13;10.55;;;;;;;3.81;81.52;101620.69;5075564;28;19930;-36
2023/04/06 05:01:35;;;;;;;13.43;10.47;;;;;;;3.79;82.69;101601.25;5076163;28;20044;-36
2023/04/06 05:04:01;;;;;;;12.87;11.03;;;;;;;3.80;81.82;101612.78;5076195;28;20069;-36
2023/04/06 05:06:26;;;;;;;13.50;10.30;;;;;;;3.82;81.60;101617.00;5075188;28;20028;-36
2023/04/06 05:08:51;;;;;;;14.20;11.50;;;;;;;3.80;81.35;101624.34;5075461;28;20016;-36
2023/04/06 05:11:17;;;;;;;14.53;10.60;;;;;;;3.83;81.64;101618.66;5075386;28;20055;-37
2023/04/06 05:13:42;;;;;;;12.73;10.80;;;;;;;3.78;81.99;101615.66;5075377;28;20025;-36
2023/04/06 05:16:08;;;;;;;16.77;11.10;;;;;;;3.81;80.53;101615.31;5075833;28;20016;-36
2023/04/06 05:18:33;;;;;;;13.20;10.90;;;;;;;3.84;82.40;101614.97;5074924;28;20020;-36
2023/04/06 05:20:59;;;;;;;16.15;11.40;;;;;;;3.90;80.93;101617.97;5075945;28;20031;-36
2023/04/06 05:23:24;;;;;;;13.37;11.23;;;;;;;3.78;81.25;101588.91;5075108;28;20058;-36
2023/04/06 05:25:50;;;;;;;13.47;10.83;;;;;;;3.94;81.30;101617.47;5074789;28;20243;-36
2023/04/06 05:28:16;;;;;;;12.30;10.63;;;;;;;3.96;80.63;101611.97;5075540;28;20031;-36
2023/04/06 05:30:42;;;;;;;14.57;11.07;;;;;;;3.99;80.54;101614.28;5074725;28;20449;-36
2023/04/06 05:33:09;;;;;;;13.75;10.75;;;;;;;4.03;81.81;101619.13;5074541;28;20024;-36
2023/04/06 05:35:34;;;;;;;14.35;11.15;;;;;;;4.01;81.42;101613.13;5075697;28;20338;-36
2023/04/06 05:38:00;;;;;;;17.63;12.13;;;;;;;4.02;81.29;101609.44;5075011;28;20028;-36
2023/04/06 05:40:25;;;;;;;14.20;11.63;;;;;;;4.07;80.13;101608.94;5074678;28;20453;-36
2023/04/06 05:42:51;;;;;;;13.82;11.63;;;;;;;4.11;81.03;101607.59;5074393;28;20028;-36
2023/04/06 05:45:18;;;;;;;12.80;11.02;;;;;;;4.07;82.11;101603.59;5074381;28;20407;-36
2023/04/06 05:47:44;;;;;;;12.50;10.82;;;;;;;4.12;80.16;101609.28;5074887;28;20058;-36
2023/04/06 05:50:14;;;;;;;13.98;11.07;;;;;;;4.12;80.96;101603.91;5074814;28;20038;-36
2023/04/06 05:52:42;;;;;;;15.85;10.65;;;;;;;4.07;81.01;101590.22;5074585;28;20334;-36
2023/04/06 05:55:09;;;;;;;15.20;11.30;;;;;;;4.14;80.86;101597.38;5074180;28;20112;-36
2023/04/06 05:57:34;;;;;;;;;;;;;;;4.25;80.15;101611.44;5075102;28;20052;-36
2023/04/06 05:59:59;;;;;;;13.00;10.55;;;;;;;4.26;81.53;101610.41;5075413;28;19958;-36
2023/04/06 06:02:25;;;;;;;12.13;10.47;;;;;;;4.29;81.17;101616.25;5073819;28;20055;-36
2023/04/06 06:04:50;;;;;;;14.83;10.67;;;;;;;4.31;81.00;101603.53;5074051;28;20013;-36
2023/04/06 06:07:16;;;;;;;14.90;11.67;;;;;;;4.27;80.79;101607.56;5074574;28;20025;-36
2023/04/06 06:09:42;;;;;;;15.75;11.60;;;;;;;4.33;80.70;101603.34;5074024;28;20020;-36
2023/04/06 06:12:07;;;;;;;14.27;11.47;;;;;;;4.35;81.71;101601.38;5074087;28;20445;-36
2023/04/06 06:14:32;;;;;;;14.83;11.60;;;;;;;4.34;81.92;101605.88;5074951;28;20020;-36
2023/04/06 06:16:58;;;;;;;12.07;10.00;;;;;;;4.39;80.50;101606.19;5074413;28;20254;-36
2023/04/06 06:19:23;;;;;;;13.30;10.83;;;;;;;4.42;80.36;101620.25;5073951;28;20123;-36
2023/04/06 06:21:48;;;;;;;16.50;12.10;;;;;;;4.34;80.49;101607.69;5074660;28;20017;-36
2023/04/06 06:24:14;;;;;;;13.23;10.97;;;;;;;4.45;80.10;101617.22;5073982;28;20146;-36
2023/04/06 06:26:39;;;;;;;12.83;11.10;;;;;;;4.47;80.69;101609.84;5074811;28;20449;-36
2023/04/06 06:29:06;;;;;;;14.20;11.50;;;;;;;4.51;80.84;101611.19;5073613;28;20270;-36
2023/04/06 06:31:31;;;;;;;14.00;11.50;;;;;;;4.58;79.83;101617.50;5073890;28;20032;-36
2023/04/06 06:33:57;;;;;;;13.70;11.23;;;;;;;4.63;80.12;101615.13;5074129;28;20020;-36
2023/04/06 06:36:25;;;;;;;16.30;10.83;;;;;;;4.67;79.59;101611.13;5073548;28;20028;-36
2023/04/06 06:38:51;;;;;;;13.63;10.93;;;;;;;4.74;79.33;101614.78;5073452;28;20024;-36
2023/04/06 06:41:17;;;;;;;15.32;11.85;;;;;;;4.73;80.03;101615.78;5072921;28;20487;-36
2023/04/06 06:43:42;;;;;;;14.15;11.50;;;;;;;4.79;81.55;101617.78;5074030;28;20025;-36
2023/04/06 06:46:08;;;;;;;16.90;10.57;;;;;;;4.87;81.06;101617.72;5074665;28;20020;-36
2023/04/06 06:48:33;;;;;;;15.30;11.47;;;;;;;4.87;79.35;101615.03;5073703;28;20166;-36
2023/04/06 06:50:59;;;;;;;16.57;11.93;;;;;;;4.89;80.66;101609.53;5074265;28;20440;-36
2023/04/06 06:53:24;;;;;;;15.98;11.65;;;;;;;4.90;80.26;101603.16;5074225;28;20365;-36
2023/04/06 06:55:50;;;;;;;14.10;11.32;;;;;;;5.00;80.79;101619.00;5073364;28;20029;-35
2023/04/06 06:58:18;;;;;;;16.75;12.45;;;;;;;5.04;81.06;101613.13;5073325;28;20104;-35
2023/04/06 07:00:43;;;;;;;12.45;10.80;;;;;;;5.08;81.66;101609.09;5073541;28;20040;-35
2023/04/06 07:03:09;;;;;;;13.60;11.67;;;;;;;5.09;79.98;101604.56;5073596;28;20420;-36
2023/04/06 07:05:35;;;;;;;11.63;10.33;;;;;;;5.14;80.86;101605.69;5074076;28;20024;-35
2023/04/06 07:08:00;;;;;;;12.40;10.63;;;;;;;5.24;83.19;101610.00;5073483;28;20432;-35
2023/04/06 07:10:26;;;;;;;14.30;11.60;;;;;;;5.12;80.45;101593.47;5074084;28;20058;-35
2023/04/06 07:12:51;;;;;;;12.27;10.65;;;;;;;5.23;81.12;101603.81;5073404;28;20444;-36
2023/04/06 07:15:17;;;;;;;14.10;10.90;;;;;;;5.23;79.39;101605.66;5073720;28;20016;-36
2023/04/06 07:17:44;;;;;;;14.57;11.38;;;;;;;5.17;79.36;101596.44;5073405;28;20032;-36
2023/04/06 07:20:10;;;;;;;13.13;11.18;;;;;;;5.23;80.20;101597.63;5073020;28;20029;-35
2023/04/06 07:22:37;;;;;;;16.27;12.23;;;;;;;5.28;80.39;101597.91;5074714;28;20016;-35
2023/04/06 07:25:03;;;;;;;13.93;11.32;;;;;;;5.31;80.98;101589.50;5077348;28;20020;-36
2023/04/06 07:27:28;;;;;;;16.75;12.20;;;;;;;5.37;80.54;101600.38;5077244;28;20040;-35
2023/04/06 07:29:54;;;;;;;13.10;11.70;;;;;;;5.37;80.84;101589.63;5077627;28;20025;-36
2023/04/06 07:32:19;;;;;;;14.90;11.07;;;;;;;5.47;81.94;101600.13;5077475;28;20369;-35
2023/04/06 07:34:45;;;;;;;14.13;10.63;;;;;;;5.50;81.92;101580.13;5077193;28;20251;-35
2023/04/06 07:37:10;;;;;;;13.57;11.48;;;;;;;5.58;79.80;101599.69;5077112;28;20024;-35
2023/04/06 07:39:36;;;;;;;17.00;11.57;;;;;;;5.66;81.71;101596.97;5077952;28;20052;-35
2023/04/06 07:42:01;;;;;;;12.40;11.10;;;;;;;5.71;80.96;101595.56;5077290;28;20419;-35
2023/04/06 07:44:26;;;;;;;19.07;12.00;;;;;;;5.76;80.13;101596.72;5077874;28;20051;-35
2023/04/06 07:46:52;;;;;;;13.07;11.43;;;;;;;5.79;80.25;101585.59;5076748;28;20024;-35
2023/04/06 07:49:17;;;;;;;12.85;10.32;;;;;;;5.85;80.47;101592.91;5077725;28;20429;-35
2023/04/06 07:51:43;;;;;;;14.57;11.03;;;;;;;5.92;80.15;101591.22;5076605;28;20053;-35
2023/04/06 07:54:08;;;;;;;13.50;10.73;;;;;;;5.98;78.39;101594.19;5076747;28;20021;-35
2023/04/06 07:56:34;;;;;;;12.17;10.83;;;;;;;6.00;76.99;101594.81;5077295;28;20020;-35
2023/04/06 07:58:59;;;;;;;14.43;11.48;;;;;;;6.05;78.55;101581.69;5076370;28;20016;-35
2023/04/06 08:01:25;;;;;;;13.77;11.60;;;;;;;6.04;78.41;101583.53;5076945;28;20041;-35
2023/04/06 08:03:50;;;;;;;13.83;11.30;;;;;;;6.11;79.03;101589.88;5076948;28;20273;-35
2023/04/06 08:06:16;;;;;;;14.30;11.55;;;;;;;6.15;78.58;101595.72;5076850;28;20711;-35
2023/04/06 08:08:42;;;;;;;14.07;10.95;;;;;;;6.15;78.51;101590.34;5076776;28;20412;-35
2023/04/06 08:11:08;;;;;;;12.75;10.65;;;;;;;6.16;77.13;101592.84;5076219;28;20032;-35
2023/04/06 08:13:35;;;;;;;17.38;12.35;;;;;;;6.21;77.70;101602.19;5076422;28;20074;-35
2023/04/06 08:16:00;;;;;;;12.18;10.63;;;;;;;6.22;78.18;101587.75;5076394;28;20376;-35
2023/04/06 08:18:25;;;;;;;16.20;11.50;;;;;;;6.33;78.05;101592.66;5076359;28;20077;-35
2023/04/06 08:20:51;;;;;;;15.43;11.00;;;;;;;6.36;75.67;101601.19;5076357;28;20107;-35
2023/04/06 08:23:16;;;;;;;14.57;11.40;;;;;;;6.41;74.31;101596.09;5076325;28;20028;-35
2023/04/06 08:25:42;;;;;;;13.57;10.30;;;;;;;6.43;74.10;101591.34;5076866;28;20013;-35
2023/04/06 08:28:09;;;;;;;11.55;9.38;;;;;;;6.50;73.45;101599.50;5076179;28;20020;-35
2023/04/06 08:30:34;;;;;;;13.68;10.02;;;;;;;6.59;74.81;101600.25;5076140;28;20025;-35
2023/04/06 08:33:00;;;;;;;17.02;10.98;;;;;;;6.62;74.13;101606.06;5076434;28;20021;-35
2023/04/06 08:35:26;;;;;;;13.83;10.67;;;;;;;6.65;74.41;101599.50;5076390;28;20016;-35
2023/04/06 08:37:51;;;;;;;13.45;10.90;;;;;;;6.68;73.18;101599.13;5076015;28;20016;-35
2023/04/06 08:40:17;;;;;;;11.97;10.00;;;;;;;6.75;73.38;101600.06;5076166;28;20043;-35
2023/04/06 08:42:49;;;;;;;14.20;10.47;;;;;;;6.75;75.04;101592.00;5075606;28;20052;-36
2023/04/06 08:45:16;;;;;;;12.75;10.25;;;;;;;6.88;74.26;101600.22;5075624;28;20043;-35
2023/04/06 08:47:42;;;;;;;13.75;10.43;;;;;;;6.98;75.70;101608.00;5075630;28;20027;-35
2023/04/06 08:50:08;;;;;;;13.23;11.02;;;;;;;7.03;73.04;101602.03;5075909;28;20052;-35
2023/04/06 08:52:33;;;;;;;15.25;11.48;;;;;;;7.08;74.61;101602.31;5075798;28;20074;-35
2023/04/06 08:55:00;;;;;;;15.95;11.20;;;;;;;7.10;72.95;101601.09;5076629;28;20028;-35
2023/04/06 08:57:26;;;;;;;13.82;10.82;;;;;;;7.15;74.82;101601.34;5075661;28;20025;-35
2023/04/06 08:59:52;;;;;;;12.40;10.85;;;;;;;7.19;74.41;101588.38;5075643;28;20036;-35
2023/04/06 09:02:18;;;;;;;13.52;10.93;;;;;;;7.23;73.67;101597.72;5075837;28;20041;-35
2023/04/06 09:04:47;;;;;;;13.73;9.93;;;;;;;7.30;74.92;101595.94;5075512;28;20115;-35
2023/04/06 09:07:14;;;;;;;11.85;9.88;;;;;;;7.39;75.04;101597.47;5075163;28;20028;-35
2023/04/06 09:09:43;;;;;;;11.02;9.65;;;;;;;7.40;74.57;101590.22;5075749;28;20103;-35
2023/04/06 09:12:12;;;;;;;12.93;10.07;;;;;;;7.53;75.29;101603.81;5075073;28;20024;-35
2023/04/06 09:14:38;;;;;;;14.02;11.38;;;;;;;7.55;76.02;101603.63;5075836;28;20030;-35
2023/04/06 09:17:04;;;;;;;15.55;11.23;;;;;;;7.60;75.73;101596.63;5075536;28;20029;-35
2023/04/06 09:19:30;;;;;;;15.88;10.85;;;;;;;7.68;76.37;101601.06;5075492;28;20027;-35
2023/04/06 09:22:07;;;;;;;12.20;9.83;;;;;;;7.74;76.76;101603.81;5075662;28;20020;-35
2023/04/06 09:24:42;;;;;;;;;;;;;;;7.84;77.08;101603.47;5075497;28;20031;-35
2023/04/06 09:27:07;;;;;;;20.55;10.68;;;;;;;7.89;76.19;101606.41;5075119;28;19958;-35
2023/04/06 09:29:33;;;;;;;18.73;10.90;;;;;;;7.87;76.58;101586.09;5075325;28;20162;-35
2023/04/06 09:32:03;;;;;;;14.25;10.27;;;;;;;7.99;77.39;101590.75;5074742;28;20465;-35
2023/04/06 09:34:28;;;;;;;13.35;11.68;;;;;;;8.04;77.04;101594.72;5075142;28;20103;-36
2023/04/06 09:36:54;;;;;;;15.13;10.20;;;;;;;8.02;78.32;101589.53;5074600;28;20025;-35
2023/04/06 09:39:23;;;;;;;12.43;11.13;;;;;;;8.09;79.74;101584.19;5074546;28;20316;-35
2023/04/06 09:41:51;;;;;;;14.38;10.20;;;;;;;8.12;77.93;101584.63;5075296;28;20020;-35
2023/04/06 09:44:16;;;;;;;11.80;10.00;;;;;;;8.11;80.77;101580.28;5074874;28;20078;-35
2023/04/06 09:46:43;;;;;;;13.52;11.13;;;;;;;8.18;81.48;101583.00;5074065;28;20057;-35
2023/04/06 09:49:10;;;;;;;11.10;9.48;;;;;;;8.26;81.04;101593.63;5074255;28;20032;-36
2023/04/06 09:51:40;;;;;;;11.63;9.30;;;;;;;8.35;84.37;101595.16;5074602;28;20074;-35
2023/04/06 09:54:07;;;;;;;12.25;9.68;;;;;;;8.35;85.40;101587.06;5075082;28;20029;-35
2023/04/06 09:57:03;;;;;;;12.38;9.80;;;;;;;8.45;85.68;101590.28;5075036;28;20027;-35
2023/04/06 09:59:38;;;;;;;11.55;9.45;;;;;;;8.51;86.29;101594.84;5075043;28;20112;-35
2023/04/06 10:02:05;;;;;;;11.70;9.05;;;;;;;8.47;86.02;101588.19;5074201;28;20492;-35
2023/04/06 10:04:40;;;;;;;13.25;9.98;;;;;;;8.44;85.45;101594.00;5075177;28;20029;-35
2023/04/06 10:07:06;;;;;;;12.60;8.82;;;;;;;8.35;86.56;101595.16;5074529;28;20024;-35
2023/04/06 10:09:35;;;;;;;10.77;8.80;;;;;;;8.32;88.91;101598.22;5074275;28;20028;-35
2023/04/06 10:12:03;;;;;;;12.55;9.07;;;;;;;8.21;88.89;101598.78;5073427;28;20124;-35
2023/04/06 10:14:30;;;;;;;9.70;8.70;;;;;;;8.21;92.31;101599.63;5074114;28;20111;-35
2023/04/06 10:16:56;;;;;;;12.32;8.50;;;;;;;8.08;92.64;101596.81;5074092;28;20027;-35
2023/04/06 10:19:25;;;;;;;;;;;;;;;8.19;91.18;101607.06;5074494;28;20028;-35
2023/04/06 10:21:54;;;;;;;10.10;8.00;;;;;;;8.05;91.16;101607.97;5073670;28;19908;-35
2023/04/06 10:24:20;;;;;;;7.82;7.03;;;;;;;7.97;93.81;101591.97;5073727;28;20522;-35
2023/04/06 10:27:27;;;;;;;8.65;7.80;;;;;;;8.03;97.17;101601.13;5074309;28;20029;-35
2023/04/06 10:29:52;;;;;;;10.40;8.23;;;;;;;8.02;98.01;101612.94;5044052;28;20055;-35
2023/04/06 10:32:18;;;;;;;9.10;7.43;;;;;;;7.93;98.15;101596.91;5073952;28;20029;-35
2023/04/06 10:34:43;;;;;;;10.13;8.13;;;;;;;7.98;99.15;101605.25;5074455;28;20258;-36
2023/04/06 10:37:16;;;;;;;8.17;7.30;;;;;;;8.00;99.94;101610.44;5074184;28;20027;-36
2023/04/06 10:39:59;;;;;;;10.30;7.03;;;;;;;7.93;100.00;101610.38;5073621;28;20040;-36
2023/04/06 10:42:25;;;;;;;8.45;7.05;;;;;;;8.00;100.00;101611.28;5074345;28;20024;-36
2023/04/06 10:44:51;;;;;;;9.95;6.93;;;;;;;7.93;100.00;101607.69;5074377;28;20391;-36
2023/04/06 10:47:20;;;;;;;8.13;6.75;;;;;;;7.94;100.00;101609.34;5074019;28;20326;-35
2023/04/06 10:49:46;;;;;;;7.35;6.60;;;;;;;7.93;100.00;101596.91;5074069;28;20032;-36
2023/04/06 10:52:12;;;;;;;8.05;6.57;;;;;;;7.89;100.00;101598.34;5073642;28;20082;-36
2023/04/06 10:54:42;;;;;;;7.93;6.25;;;;;;;7.83;100.00;101600.97;5074218;28;20020;-36
2023/04/06 10:57:08;;;;;;;7.57;5.55;;;;;;;7.74;100.00;101608.34;5073440;28;20020;-36
2023/04/06 10:59:33;;;;;;;7.25;6.28;;;;;;;7.70;100.00;101599.00;5074204;28;20020;-36
2023/04/06 11:01:58;;;;;;;7.90;6.30;;;;;;;7.61;100.00;101587.56;5073919;28;20404;-36
2023/04/06 11:04:25;;;;;;;7.27;6.10;;;;;;;7.61;100.00;101590.25;5073883;28;20031;-36
2023/04/06 11:06:50;;;;;;;8.00;5.95;;;;;;;7.58;100.00;101595.19;5073882;28;20369;-35
2023/04/06 11:09:31;;;;;;;7.43;6.32;;;;;;;7.45;100.00;101569.78;5073555;28;20029;-35
2023/04/06 11:11:56;;;;;;;6.63;5.93;;;;;;;7.61;100.00;101581.31;5073475;28;20024;-35
2023/04/06 11:14:22;;;;;;;8.27;6.80;;;;;;;7.60;100.00;101579.66;5073175;28;20365;-35
2023/04/06 11:16:49;;;;;;;18.70;7.70;;;;;;;7.63;100.00;101584.66;5073477;28;20407;-35
2023/04/06 11:19:16;;;;;;;11.63;6.30;;;;;;;7.62;100.00;101581.13;5073125;28;20077;-35